Purcell, OK

2:22 PM CDT on August 21, 2014 (GMT -0500)
Home | Change Station
CLOSE
Current Station
Personal Weather Station
Location: Noble, OK
Elevation: 1122 ft
Nearby Weather Stations

Elev 1122 ft 35.11 °N, 97.38 °W | Updated 2 minutes ago

Mostly Cloudy
Mostly Cloudy
96.0 °F
Feels Like 105 °F
N
5.0
Wind Variable Wind from SSE
Gusts 6.0 mph

Today
High -- | Low -- °F
--% Chance of Precip.
Yesterday
High -- | Low -- °F
Precip. -- in
6:54 AM 8:10 PM
Waning Crescent, 12% visible
Pressure 29.97 in
Visibility 10.0 miles
Clouds Scattered Clouds 5500 ft
Mostly Cloudy 7000 ft
Heat Index 105 °F
Dew Point 72 °F
Humidity 46%
Rainfall 0.00 in
Snow Depth Not available.
UV 6 out of 12
Pollen 9.80 out of 12
Ozone Good
PM2.5 Moderate
Flu Activity Not available.
METAR KOUN 211915Z AUTO 18014G17KT 10SM SCT055 BKN070 33/21 A2997 RMK AO2

More Conditions Fewer Conditions

Pressure 29.97 in
Visibility 10.0 miles
Clouds Scattered Clouds 5500 ft
Mostly Cloudy 7000 ft
Heat Index 105 °F
Dew Point 72 °F
Humidity 46%
Rainfall 0.00 in
Snow Depth Not available.
UV 6 out of 12
Pollen 9.80 out of 12
Ozone Good
PM2.5 Moderate
Flu Activity Not available.
METAR KOUN 211915Z AUTO 18014G17KT 10SM SCT055 BKN070 33/21 A2997 RMK AO2

More Conditions Fewer Conditions

10-Day Weather Forecast

Almanac

Astronomy

Aug. 21, 2014 Rise Set
Actual Time 6:54 AM CDT 8:10 PM CDT
Civil Twilight 6:27 AM CDT 8:36 PM CDT
Nautical Twilight 5:56 AM CDT 9:08 PM CDT
Astronomical Twilight 5:23 AM CDT 9:41 PM CDT
Moon 3:29 AM CDT 5:37 PM CDT
Length of Visible Light 14h 09m
Length of Day
13h 16m
Tomorrow will be 2m 1s shorter.
Waning Crescent, 12% of the Moon is Illuminated
Today
Waning Crescent
Aug 25
New
Sep 2
First Quarter
Sep 8
Full
Sep 15
Last Quarter

Today's Extremes

State Highs State Lows

Community

WunderPhotos

Upload Photos

1,746,008 photos uploaded!

WunderBlogs® & News

Nearby

Air Quality

  Air Quality AQ Index Pollutant
Yesterday Moderate
PM2.5
Yesterday Good
OZONE
Current Moderate
PM2.5
Current Good
OZONE
Thursday Moderate
PM2.5
Thursday Good
OZONE
Friday Moderate
PM2.5
Friday Good
OZONE
Saturday Moderate
PM2.5
Saturday Good
OZONE
Sunday Moderate
PM2.5
Sunday Good
OZONE
Monday Moderate
PM2.5
Monday Good
OZONE

Snow Depth

Station Depth Elevation
No new snow has been reported.

Earthquake Activity

City Distance Mag. Time & Date
Medford, Oklahoma 128 miles 3.8 1:18 AM CDT
2014-08-17
Medford, Oklahoma 119 miles 3.0 9:13 PM CDT
2014-08-16
Medford, Oklahoma 128 miles 3.4 5:54 AM CDT
2014-08-16
Medford, Oklahoma 125 miles 2.5 7:09 AM CDT
2014-08-15
Minimum magnitude displayed is 2.5.

Coastal Water Temperatures

Place Temperature
No Stations Reporting

Nearby Weather Stations